createdAt,value
2022-12-15T00:01:44.634Z,25.53
2022-12-15T00:04:30.808Z,25.67
2022-12-15T00:07:16.431Z,27.37
2022-12-15T00:10:02.199Z,27.23
2022-12-15T00:12:47.793Z,28.07
2022-12-15T00:15:33.590Z,27.37
2022-12-15T00:18:26.486Z,27.33
2022-12-15T00:21:16.631Z,27.57
2022-12-15T00:24:02.516Z,26.83
2022-12-15T00:26:48.185Z,27.67
2022-12-15T00:29:34.075Z,27.97
2022-12-15T00:32:19.790Z,28.83
2022-12-15T00:35:05.706Z,26.40
2022-12-15T00:37:51.732Z,28.77
2022-12-15T00:40:19.006Z,26.97
2022-12-15T00:42:46.082Z,27.50
2022-12-15T00:45:16.908Z,27.53
2022-12-15T00:47:44.199Z,28.27
2022-12-15T00:50:30.053Z,27.80
2022-12-15T00:53:15.728Z,28.00
2022-12-15T00:56:01.319Z,26.20
2022-12-15T00:58:47.360Z,27.10
2022-12-15T01:01:33.293Z,27.23
2022-12-15T01:04:19.309Z,29.13
2022-12-15T01:07:05.173Z,32.10
2022-12-15T01:09:50.831Z,31.60
2022-12-15T01:12:36.606Z,27.47
2022-12-15T01:15:22.290Z,27.07
2022-12-15T01:18:07.908Z,27.23
2022-12-15T01:20:34.990Z,27.97
2022-12-15T01:23:02.133Z,27.70
2022-12-15T01:25:29.305Z,27.33
2022-12-15T01:27:56.541Z,26.93
2022-12-15T01:30:24.895Z,24.87
2022-12-15T01:32:52.231Z,24.40
2022-12-15T01:35:20.094Z,23.87
2022-12-15T01:37:50.376Z,26.73
2022-12-15T01:40:37.328Z,23.87
2022-12-15T01:43:04.445Z,24.20
2022-12-15T01:45:31.644Z,25.67
2022-12-15T01:48:03.461Z,23.57
2022-12-15T01:50:31.583Z,25.50
2022-12-15T01:52:58.735Z,23.83
2022-12-15T01:55:26.793Z,26.93
2022-12-15T01:57:55.551Z,28.03
2022-12-15T02:00:22.960Z,26.70
2022-12-15T02:02:50.379Z,25.70
2022-12-15T02:05:17.565Z,27.20
2022-12-15T02:07:44.846Z,27.57
2022-12-15T02:10:12.036Z,25.80
2022-12-15T02:12:51.011Z,28.70
2022-12-15T02:15:20.140Z,26.73
2022-12-15T02:18:28.505Z,26.60
2022-12-15T02:21:14.872Z,29.57
2022-12-15T02:23:42.134Z,28.97
2022-12-15T02:26:24.216Z,27.03
2022-12-15T02:29:02.912Z,27.97
2022-12-15T02:31:50.494Z,28.93
2022-12-15T02:34:39.103Z,29.70
2022-12-15T02:37:15.307Z,28.60
2022-12-15T02:39:42.596Z,28.20
2022-12-15T02:42:12.817Z,30.23
2022-12-15T02:44:44.267Z,29.27
2022-12-15T02:47:28.338Z,29.00
2022-12-15T02:50:22.561Z,29.00
2022-12-15T02:53:11.039Z,29.77
2022-12-15T02:56:00.293Z,28.97
2022-12-15T02:58:39.252Z,26.87
2022-12-15T03:01:09.938Z,28.17
2022-12-15T03:03:37.562Z,28.60
2022-12-15T03:06:05.058Z,25.30
2022-12-15T03:08:32.465Z,28.43
2022-12-15T03:10:59.614Z,28.07
2022-12-15T03:13:26.819Z,27.63
2022-12-15T03:15:54.661Z,27.57
2022-12-15T03:18:21.905Z,29.03
2022-12-15T03:20:49.132Z,28.90
2022-12-15T03:23:16.530Z,28.97
2022-12-15T03:25:46.388Z,28.90
2022-12-15T03:28:17.302Z,29.70
2022-12-15T03:30:44.973Z,28.00
2022-12-15T03:33:12.282Z,28.87
2022-12-15T03:35:39.671Z,28.30
2022-12-15T03:38:07.189Z,28.57
2022-12-15T03:40:34.419Z,27.73
2022-12-15T03:43:01.727Z,28.47
2022-12-15T03:45:29.052Z,26.53
2022-12-15T03:47:56.776Z,26.80
2022-12-15T03:50:26.142Z,23.33
2022-12-15T03:52:57.652Z,25.33
2022-12-15T03:55:24.806Z,25.47
2022-12-15T03:57:52.141Z,23.10
2022-12-15T04:00:19.784Z,25.93
2022-12-15T04:02:47.503Z,24.93
2022-12-15T04:05:28.635Z,25.13
2022-12-15T04:07:56.650Z,25.60
2022-12-15T04:10:27.358Z,24.97
2022-12-15T04:13:09.508Z,24.97
2022-12-15T04:15:37.347Z,28.80
2022-12-15T04:18:07.422Z,25.30
2022-12-15T04:20:34.613Z,25.83
2022-12-15T04:23:01.849Z,24.43
2022-12-15T04:25:47.530Z,24.50
2022-12-15T04:28:33.283Z,23.20
2022-12-15T04:31:37.406Z,21.87
2022-12-15T04:34:26.926Z,24.17
2022-12-15T04:37:12.769Z,23.07
2022-12-15T04:40:00.046Z,20.90
2022-12-15T04:42:45.748Z,22.70
2022-12-15T04:45:31.543Z,26.77
2022-12-15T04:48:18.007Z,24.13
2022-12-15T04:51:03.851Z,24.63
2022-12-15T04:53:49.486Z,23.33
2022-12-15T04:56:35.294Z,20.87
2022-12-15T04:59:20.998Z,20.07
2022-12-15T05:02:06.744Z,22.33
2022-12-15T05:04:52.509Z,23.70
2022-12-15T05:07:38.561Z,20.93
2022-12-15T05:10:24.890Z,22.10
2022-12-15T05:13:10.570Z,23.20
2022-12-15T05:15:56.324Z,21.33
2022-12-15T05:18:42.062Z,22.43
2022-12-15T05:21:28.146Z,23.77
2022-12-15T05:24:13.872Z,26.20
2022-12-15T05:26:59.639Z,23.90
2022-12-15T05:29:45.300Z,21.83
2022-12-15T05:32:13.377Z,25.00
2022-12-15T05:34:40.689Z,23.33
2022-12-15T05:37:07.945Z,22.20
2022-12-15T05:39:35.206Z,23.27
2022-12-15T05:42:02.550Z,20.90
2022-12-15T05:44:29.717Z,22.77
2022-12-15T05:46:57.064Z,22.43
2022-12-15T05:49:24.449Z,19.90
2022-12-15T05:51:51.790Z,22.40
2022-12-15T05:54:19.513Z,20.13
2022-12-15T05:56:46.879Z,20.73
2022-12-15T05:59:17.776Z,22.17
2022-12-15T06:01:45.133Z,23.37
2022-12-15T06:04:15.188Z,20.17
2022-12-15T06:06:42.445Z,20.90
2022-12-15T06:09:09.813Z,19.90
2022-12-15T06:11:37.618Z,22.13
2022-12-15T06:14:05.110Z,20.30
2022-12-15T06:16:32.847Z,23.57
2022-12-15T06:19:01.067Z,22.90
2022-12-15T06:21:30.774Z,22.20
2022-12-15T06:23:57.973Z,22.90
2022-12-15T06:26:33.889Z,25.30
2022-12-15T06:29:02.930Z,24.30
2022-12-15T06:31:30.634Z,24.47
2022-12-15T06:34:02.141Z,23.47
2022-12-15T06:36:31.023Z,23.47
2022-12-15T06:39:02.178Z,18.03
2022-12-15T06:41:32.040Z,23.80
2022-12-15T06:43:59.678Z,24.20
2022-12-15T06:46:28.229Z,23.97
2022-12-15T06:48:55.447Z,24.20
2022-12-15T06:51:22.813Z,25.07
2022-12-15T06:53:51.224Z,26.73
2022-12-15T06:56:34.611Z,22.73
2022-12-15T06:59:06.150Z,24.23
2022-12-15T07:01:33.524Z,23.50
2022-12-15T07:04:02.983Z,26.97
2022-12-15T07:06:36.424Z,24.33
2022-12-15T07:09:04.524Z,24.30
2022-12-15T07:11:31.676Z,24.53
2022-12-15T07:13:58.947Z,23.20
2022-12-15T07:16:26.825Z,24.33
2022-12-15T07:18:53.972Z,26.13
2022-12-15T07:21:21.348Z,29.50
2022-12-15T07:23:56.943Z,29.97
2022-12-15T07:26:25.109Z,31.30
2022-12-15T07:28:53.788Z,28.83
2022-12-15T07:31:21.491Z,29.07
2022-12-15T07:33:48.913Z,28.37
2022-12-15T07:36:16.149Z,29.17
2022-12-15T07:38:49.997Z,29.13
2022-12-15T07:41:18.166Z,29.77
2022-12-15T07:43:46.678Z,30.77
2022-12-15T07:46:14.299Z,31.07
2022-12-15T07:48:41.359Z,29.23
2022-12-15T07:51:15.151Z,28.93
2022-12-15T07:53:44.857Z,27.60
2022-12-15T07:56:12.071Z,29.30
2022-12-15T07:58:39.575Z,30.07
2022-12-15T08:01:07.776Z,27.60
2022-12-15T08:03:36.214Z,28.20
2022-12-15T08:06:08.266Z,28.23
2022-12-15T08:08:36.285Z,29.40
2022-12-15T08:11:07.614Z,28.60
2022-12-15T08:16:22.350Z,27.23
2022-12-15T08:18:49.648Z,27.93
2022-12-15T08:21:17.638Z,28.83
2022-12-15T08:23:44.673Z,30.23
2022-12-15T08:26:13.640Z,31.30
2022-12-15T08:28:41.080Z,28.70
2022-12-15T08:31:09.894Z,30.03
2022-12-15T08:33:37.225Z,31.47
2022-12-15T08:36:06.505Z,28.47
2022-12-15T08:38:33.747Z,27.17
2022-12-15T08:41:11.463Z,29.33
2022-12-15T08:43:43.995Z,27.97
2022-12-15T08:46:15.235Z,27.07
2022-12-15T08:48:42.431Z,27.23
2022-12-15T08:51:09.985Z,27.90
2022-12-15T08:53:37.107Z,26.83
2022-12-15T08:56:08.711Z,27.03
2022-12-15T08:58:36.064Z,27.63
2022-12-15T09:01:12.954Z,29.40
2022-12-15T09:03:43.087Z,108.57
2022-12-15T09:06:24.335Z,42.30
2022-12-15T09:08:55.043Z,26.67
2022-12-15T09:11:22.425Z,28.20
2022-12-15T09:13:49.398Z,29.37
2022-12-15T09:16:17.124Z,30.30
2022-12-15T09:18:49.171Z,31.77
2022-12-15T09:21:16.717Z,30.53
2022-12-15T09:23:43.970Z,28.57
2022-12-15T09:26:13.065Z,29.60
2022-12-15T09:28:40.379Z,28.37
2022-12-15T09:31:12.520Z,28.97
2022-12-15T09:33:40.001Z,29.53
2022-12-15T09:36:08.086Z,29.23
2022-12-15T09:38:36.012Z,31.57
2022-12-15T09:41:09.665Z,30.50
2022-12-15T09:43:46.621Z,29.63
2022-12-15T09:46:28.388Z,29.70
2022-12-15T09:48:56.257Z,29.73
2022-12-15T09:51:45.539Z,28.10
2022-12-15T09:54:12.483Z,27.23
2022-12-15T09:56:49.716Z,26.80
2022-12-15T09:59:29.380Z,27.23
2022-12-15T10:02:29.449Z,25.93
2022-12-15T10:05:16.730Z,27.00
2022-12-15T10:07:46.350Z,26.10
2022-12-15T10:10:18.071Z,25.63
2022-12-15T10:12:54.815Z,20.67
2022-12-15T10:15:26.631Z,26.37
2022-12-15T10:18:21.786Z,25.83
2022-12-15T10:20:48.889Z,26.13
2022-12-15T10:23:18.067Z,25.27
2022-12-15T10:25:56.491Z,26.10
2022-12-15T10:28:33.800Z,26.67
2022-12-15T10:31:03.607Z,24.83
2022-12-15T10:33:47.074Z,26.60
2022-12-15T10:36:16.547Z,23.50
2022-12-15T10:38:50.396Z,27.30
2022-12-15T10:41:21.662Z,25.40
2022-12-15T10:43:50.437Z,24.97
2022-12-15T10:46:19.943Z,27.90
2022-12-15T10:48:49.219Z,27.67
2022-12-15T10:51:31.655Z,26.60
2022-12-15T10:54:11.271Z,28.03
2022-12-15T10:56:57.764Z,24.13
2022-12-15T10:59:34.720Z,25.43
2022-12-15T11:02:24.080Z,24.03
2022-12-15T11:05:17.307Z,22.40
2022-12-15T11:07:48.033Z,24.53
2022-12-15T11:10:16.365Z,24.50
2022-12-15T11:12:58.126Z,26.37
2022-12-15T11:15:31.462Z,23.57
2022-12-15T11:18:05.965Z,27.07
2022-12-15T11:20:38.947Z,22.20
2022-12-15T11:23:19.488Z,25.03
2022-12-15T11:26:06.794Z,25.03
2022-12-15T11:28:46.844Z,26.30
2022-12-15T11:31:18.112Z,25.43
2022-12-15T11:33:45.062Z,25.50
2022-12-15T11:36:20.062Z,24.90
2022-12-15T11:38:50.069Z,23.23
2022-12-15T11:41:39.940Z,22.87
2022-12-15T11:44:24.753Z,22.93
2022-12-15T11:47:13.456Z,24.07
2022-12-15T11:49:59.363Z,23.73
2022-12-15T11:52:34.868Z,22.73
2022-12-15T11:55:15.401Z,21.90
2022-12-15T11:57:54.501Z,22.60
2022-12-15T12:00:22.233Z,21.97
2022-12-15T12:02:49.396Z,23.40
2022-12-15T12:05:44.408Z,23.37
2022-12-15T12:08:11.677Z,20.60
2022-12-15T12:10:59.947Z,24.83
2022-12-15T12:13:57.656Z,22.17
2022-12-15T12:16:52.523Z,22.43
2022-12-15T12:19:31.837Z,23.80
2022-12-15T12:22:21.322Z,22.80
2022-12-15T12:25:00.614Z,21.23
2022-12-15T12:28:00.434Z,22.43
2022-12-15T12:30:39.236Z,21.83
2022-12-15T12:33:28.188Z,21.90
2022-12-15T12:35:59.024Z,21.97
2022-12-15T12:38:39.136Z,21.53
2022-12-15T12:41:10.743Z,21.60
2022-12-15T12:43:50.393Z,20.90
2022-12-15T12:46:43.379Z,19.47
2022-12-15T12:49:34.963Z,21.67
2022-12-15T12:52:03.598Z,20.47
2022-12-15T12:54:39.968Z,21.97
2022-12-15T12:57:13.137Z,20.07
2022-12-15T13:00:00.970Z,19.03
2022-12-15T13:02:29.603Z,21.73
2022-12-15T13:05:22.405Z,19.10
2022-12-15T13:08:05.264Z,19.93
2022-12-15T13:10:33.228Z,20.17
2022-12-15T13:13:19.084Z,20.43
2022-12-15T13:15:50.913Z,19.97
2022-12-15T13:18:25.057Z,20.07
2022-12-15T13:20:56.113Z,20.87
2022-12-15T13:23:26.183Z,20.20
2022-12-15T13:25:56.616Z,20.80
2022-12-15T13:28:43.179Z,20.77
2022-12-15T13:31:20.926Z,21.00
2022-12-15T13:33:51.397Z,20.53
2022-12-15T13:36:37.501Z,21.50
2022-12-15T13:39:19.414Z,20.40
2022-12-15T13:42:31.645Z,19.43
2022-12-15T13:44:45.563Z,20.73
2022-12-15T13:47:16.771Z,20.10
2022-12-15T13:50:01.764Z,19.30
2022-12-15T13:55:40.093Z,20.20
2022-12-15T13:58:17.650Z,18.03
2022-12-15T14:00:55.316Z,18.73
2022-12-15T14:03:22.560Z,18.80
2022-12-15T14:05:54.152Z,19.87
2022-12-15T14:08:22.099Z,19.60
2022-12-15T14:10:53.823Z,19.90
2022-12-15T14:13:34.655Z,19.70
2022-12-15T14:16:15.578Z,18.80
2022-12-15T14:18:43.367Z,19.40
2022-12-15T14:21:24.589Z,18.30
2022-12-15T14:24:28.333Z,18.70
2022-12-15T14:26:38.860Z,20.40
2022-12-15T14:29:06.453Z,19.13
2022-12-15T14:31:33.774Z,21.00
2022-12-15T14:34:08.197Z,19.60
2022-12-15T14:36:35.706Z,21.67
2022-12-15T14:39:05.296Z,21.30
2022-12-15T14:41:35.024Z,20.43
2022-12-15T14:44:36.086Z,20.77
2022-12-15T14:47:01.768Z,29.97
2022-12-15T14:49:31.465Z,21.63
2022-12-15T14:52:02.768Z,20.13
2022-12-15T14:54:35.989Z,21.73
2022-12-15T14:57:09.705Z,19.90
2022-12-15T14:59:40.781Z,19.60
2022-12-15T15:02:12.880Z,20.90
2022-12-15T15:04:40.585Z,20.50
2022-12-15T15:07:16.581Z,20.97
2022-12-15T15:09:45.068Z,21.53
2022-12-15T15:12:19.669Z,19.83
2022-12-15T15:14:52.185Z,21.93
2022-12-15T15:17:38.126Z,21.60
2022-12-15T15:20:08.158Z,21.40
2022-12-15T15:22:42.918Z,20.97
2022-12-15T15:25:39.285Z,22.63
2022-12-15T15:28:19.059Z,21.50
2022-12-15T15:30:57.689Z,21.60
2022-12-15T15:33:25.346Z,22.37
2022-12-15T15:35:54.189Z,22.40
2022-12-15T15:38:24.922Z,21.07
2022-12-15T15:40:56.740Z,19.93
2022-12-15T15:43:25.410Z,21.67
2022-12-15T15:46:13.408Z,23.20
2022-12-15T15:48:51.066Z,23.07
2022-12-15T15:51:18.538Z,23.90
2022-12-15T15:53:45.748Z,20.63
2022-12-15T15:56:14.326Z,21.97
2022-12-15T15:58:43.151Z,22.80
2022-12-15T16:01:13.286Z,22.77
2022-12-15T16:03:41.328Z,22.37
2022-12-15T16:06:18.945Z,22.73
2022-12-15T16:08:47.171Z,24.53
2022-12-15T16:11:14.424Z,24.43
2022-12-15T16:13:41.979Z,23.03
2022-12-15T16:16:30.975Z,23.03
2022-12-15T16:18:58.616Z,23.43
2022-12-15T16:21:27.217Z,23.67
2022-12-15T16:23:54.884Z,22.90
2022-12-15T16:26:27.971Z,23.47
2022-12-15T16:28:55.303Z,23.13
2022-12-15T16:31:41.908Z,23.47
2022-12-15T16:34:09.451Z,22.30
2022-12-15T16:36:36.685Z,22.80
2022-12-15T16:39:04.824Z,24.33
2022-12-15T16:41:32.218Z,22.77
2022-12-15T16:43:59.328Z,22.80
2022-12-15T16:46:26.504Z,20.70
2022-12-15T16:48:53.854Z,22.53
2022-12-15T16:51:37.328Z,22.20
2022-12-15T16:54:04.943Z,21.73
2022-12-15T16:56:32.051Z,22.93
2022-12-15T16:59:30.995Z,24.17
2022-12-15T17:01:46.399Z,24.43
2022-12-15T17:04:14.047Z,23.83
2022-12-15T17:06:41.320Z,22.67
2022-12-15T17:09:09.217Z,22.60
2022-12-15T17:11:36.423Z,21.87
2022-12-15T17:14:03.528Z,22.13
2022-12-15T17:16:30.810Z,22.20
2022-12-15T17:18:58.137Z,22.40
2022-12-15T17:21:29.838Z,23.47
2022-12-15T17:24:04.038Z,24.27
2022-12-15T17:26:32.384Z,24.43
2022-12-15T17:29:13.326Z,23.47
2022-12-15T17:31:40.654Z,24.63
2022-12-15T17:34:29.105Z,24.30
2022-12-15T17:37:00.619Z,25.50
2022-12-15T17:39:28.011Z,24.17
2022-12-15T17:42:00.366Z,25.07
2022-12-15T17:44:38.585Z,25.13
2022-12-15T17:47:07.357Z,23.37
2022-12-15T17:49:37.796Z,25.00
2022-12-15T17:52:28.101Z,26.27
2022-12-15T17:54:55.214Z,24.87
2022-12-15T17:57:22.227Z,24.80
2022-12-15T17:59:49.276Z,24.67
2022-12-15T18:02:16.508Z,24.03
2022-12-15T18:04:43.747Z,24.60
2022-12-15T18:07:37.169Z,23.13
2022-12-15T18:10:04.450Z,24.23
2022-12-15T18:12:31.563Z,23.70
2022-12-15T18:14:58.947Z,22.40
2022-12-15T18:17:26.061Z,25.20
2022-12-15T18:19:53.252Z,23.73
2022-12-15T18:22:22.924Z,26.37
2022-12-15T18:24:51.057Z,25.40
2022-12-15T18:27:26.403Z,21.17
2022-12-15T18:29:53.598Z,24.07
2022-12-15T18:32:22.580Z,24.67
2022-12-15T18:34:49.906Z,25.17
2022-12-15T18:37:20.690Z,26.80
2022-12-15T18:39:47.934Z,25.63
2022-12-15T18:42:16.106Z,23.90
2022-12-15T18:44:47.822Z,24.80
2022-12-15T18:47:22.826Z,26.87
2022-12-15T18:49:50.102Z,23.07
2022-12-15T18:52:21.696Z,23.77
2022-12-15T18:54:53.307Z,23.37
2022-12-15T18:57:34.375Z,23.40
2022-12-15T19:00:11.534Z,23.87
2022-12-15T19:02:38.763Z,24.17
2022-12-15T19:05:06.424Z,22.47
2022-12-15T19:07:34.478Z,25.20
2022-12-15T19:10:01.483Z,22.23
2022-12-15T19:12:28.497Z,20.07
2022-12-15T19:14:55.739Z,22.07
2022-12-15T19:17:42.105Z,23.93
2022-12-15T19:20:37.901Z,20.57
2022-12-15T19:23:05.375Z,23.27
2022-12-15T19:25:32.519Z,23.53
2022-12-15T19:28:00.071Z,24.53
2022-12-15T19:30:35.904Z,23.73
2022-12-15T19:33:07.582Z,20.60
2022-12-15T19:35:34.792Z,23.53
2022-12-15T19:38:02.253Z,22.47
2022-12-15T19:40:31.073Z,23.47
2022-12-15T19:42:59.031Z,22.43
2022-12-15T19:45:28.975Z,22.33
2022-12-15T19:47:56.526Z,23.87
2022-12-15T19:50:25.598Z,23.13
2022-12-15T19:52:57.434Z,22.27
2022-12-15T19:55:30.401Z,23.23
2022-12-15T19:57:57.613Z,21.67
2022-12-15T20:00:27.592Z,22.30
2022-12-15T20:02:55.237Z,21.67
2022-12-15T20:05:23.981Z,21.57
2022-12-15T20:07:53.021Z,21.93
2022-12-15T20:10:31.351Z,20.87
2022-12-15T20:13:00.613Z,20.70
2022-12-15T20:15:27.927Z,19.97
2022-12-15T20:17:57.523Z,21.23
2022-12-15T20:20:26.500Z,21.23
2022-12-15T20:22:55.111Z,20.87
2022-12-15T20:25:29.062Z,20.20
2022-12-15T20:27:56.608Z,18.87
2022-12-15T20:30:27.052Z,15.90
2022-12-15T20:32:54.305Z,19.20
2022-12-15T20:35:22.133Z,19.77
2022-12-15T20:37:49.430Z,19.73
2022-12-15T20:40:26.419Z,20.30
2022-12-15T20:42:53.945Z,20.00
2022-12-15T20:45:22.813Z,19.00
2022-12-15T20:47:51.038Z,18.80
2022-12-15T20:50:36.449Z,18.33
2022-12-15T20:53:04.198Z,18.57
2022-12-15T20:55:31.892Z,18.67
2022-12-15T20:57:59.080Z,19.80
2022-12-15T21:00:26.522Z,18.13
2022-12-15T21:02:55.051Z,18.30
2022-12-15T21:05:24.162Z,18.97
2022-12-15T21:07:52.034Z,19.27
2022-12-15T21:10:20.467Z,18.17
2022-12-15T21:12:48.963Z,19.70
2022-12-15T21:15:17.912Z,19.53
2022-12-15T21:17:45.562Z,18.03
2022-12-15T21:20:13.232Z,18.50
2022-12-15T21:22:40.501Z,18.23
2022-12-15T21:25:16.776Z,17.30
2022-12-15T21:27:43.889Z,17.67
2022-12-15T21:30:20.684Z,17.93
2022-12-15T21:32:48.944Z,18.67
2022-12-15T21:35:17.398Z,17.87
2022-12-15T21:37:46.519Z,17.03
2022-12-15T21:40:18.525Z,16.83
2022-12-15T21:42:45.723Z,18.37
2022-12-15T21:45:17.952Z,17.97
2022-12-15T21:48:03.839Z,16.73
2022-12-15T21:50:31.113Z,18.33
2022-12-15T21:52:58.386Z,17.93
2022-12-15T21:55:27.331Z,18.07
2022-12-15T21:57:54.985Z,17.27
2022-12-15T22:00:22.726Z,16.37
2022-12-15T22:02:50.786Z,17.30
2022-12-15T22:05:22.144Z,17.40
2022-12-15T22:07:49.920Z,17.37
2022-12-15T22:10:18.928Z,16.83
2022-12-15T22:12:52.390Z,16.13
2022-12-15T22:15:25.149Z,16.67
2022-12-15T22:17:52.458Z,15.87
2022-12-15T22:20:23.935Z,17.50
2022-12-15T22:22:51.460Z,17.23
2022-12-15T22:25:26.075Z,17.37
2022-12-15T22:27:54.986Z,17.70
2022-12-15T22:30:25.998Z,16.43
2022-12-15T22:32:53.804Z,17.27
2022-12-15T22:35:22.856Z,15.77
2022-12-15T22:37:53.800Z,16.83
2022-12-15T22:40:21.699Z,17.57
2022-12-15T22:42:54.965Z,15.57
2022-12-15T22:45:24.215Z,15.20
2022-12-15T22:47:51.793Z,14.77
2022-12-15T22:50:23.989Z,15.63
2022-12-15T22:52:51.372Z,15.73
2022-12-15T22:55:19.934Z,14.10
2022-12-15T22:57:57.354Z,14.93
2022-12-15T23:00:24.547Z,13.13
2022-12-15T23:02:51.855Z,14.13
2022-12-15T23:05:19.845Z,14.13
2022-12-15T23:07:47.002Z,12.33
2022-12-15T23:10:33.749Z,13.87
2022-12-15T23:13:00.845Z,10.00
2022-12-15T23:15:46.649Z,13.30
2022-12-15T23:18:13.890Z,13.67
2022-12-15T23:20:41.252Z,13.73
2022-12-15T23:23:08.633Z,12.43
2022-12-15T23:25:35.861Z,12.63
2022-12-15T23:28:03.392Z,12.33
2022-12-15T23:30:30.319Z,12.03
2022-12-15T23:32:57.642Z,13.00
2022-12-15T23:35:24.571Z,12.70
2022-12-15T23:37:51.491Z,12.30
2022-12-15T23:40:22.265Z,11.17
2022-12-15T23:42:50.000Z,13.30
2022-12-15T23:45:18.324Z,12.27
2022-12-15T23:47:45.379Z,12.87
2022-12-15T23:50:12.436Z,12.73
2022-12-15T23:52:39.643Z,11.43
2022-12-15T23:55:10.295Z,13.07
2022-12-15T23:57:38.322Z,11.50
